Campiña-No se requiere un especial cuidado respecto a la situación meteorológica.   -   No hay avisos

Informes METAR

 

LEZL - Sevilla, Spain
Distancia de la estación: ENE 8km
Actualización: 22/10/2019 09:00
Poco nuboso
Poco nuboso
 Viento de calm
Viento: Calma
Temperatura: 10°C
Rocío: 8°C
Humedad: 88%
Barómetro: 1012 hPa
Nubes: Poco nuboso
Visibilidad: 10 km
Detalles de las nubes: Poco nuboso 610 m
2019/10/22 07:00 LEZL 220700Z 00000KT 9999 FEW020 10/08 Q1012 NOSIG
LEMO - Morón, Spain
Distancia de la estación: SE 43km
Actualización: 22/10/2019 09:00
Poco nuboso
Poco nuboso
 Viento de calm
Viento: Calma
Temperatura: 7°C
Rocío: 6°C
Humedad: 93%
Barómetro: 1012 hPa
Nubes: Poco nuboso
Visibilidad: 10 km
Detalles de las nubes: Poco nuboso 1829 m
2019/10/22 07:00 LEMO 220700Z 00000KT 9999 FEW060 07/06 Q1012 NOSIG
LEJR - Jeréz, Spain
Distancia de la estación: S 71km
Actualización: 22/10/2019 09:00
Poco nuboso
Poco nuboso
 Viento de ENE
Viento: ENE 6 km/h
Temperatura: 8°C
Rocío: 7°C
Humedad: 93%
Barómetro: 1012 hPa
Nubes: Poco nuboso
Visibilidad: 10 km
Detalles de las nubes: Poco nuboso 1981 m
2019/10/22 07:00 LEJR 220700Z 07003KT 9999 FEW065 08/07 Q1012
 
LERT - Rota, Spain
Distancia de la estación: SSO 89km
Actualización: 22/10/2019 09:00
Poco nuboso
Poco nuboso
 Viento de E
Viento: E 7 km/h
Temperatura: 10°C
Sensación térmica: 9°C
Rocío: 9°C
Humedad: 94%
Barómetro: 1012 hPa
Nubes: Poco nuboso
Visibilidad: 10 km
Detalles de las nubes: Poco nuboso 914 m
2019/10/22 07:00 LERT 220700Z 09004KT 9999 FEW030CB 10/09 Q1012 NOSIG
LEMG - Málaga, Spain
Distancia de la estación: ESE 157km
Actualización: 22/10/2019 09:00
Poco nuboso
Poco nuboso
 Viento de ONO
Viento: ONO 11 km/h
Temperatura: 11°C
Rocío: 8°C
Humedad: 82%
Barómetro: 1012 hPa
Nubes: Poco nuboso
Visibilidad: 10 km
Detalles de las nubes: Poco nuboso 1219 m
2019/10/22 07:00 LEMG 220700Z 30006KT 9999 FEW040 11/08 Q1012 NOSIG
LEBA - Córdoba, Spain
Distancia de la estación: ENE 115km
Actualización: 22/10/2019 09:00
Poco nuboso
Poco nuboso
 Viento de OSO
Viento: OSO 6 km/h
Temperatura: 9°C
Rocío: 7°C
Humedad: 87%
Barómetro: 1012 hPa
Nubes: Poco nuboso
Visibilidad: 10 km
Detalles de las nubes: Poco nuboso 1372 m
2019/10/22 07:00 LEBA 220700Z 25003KT 220V290 9999 FEW045 09/07 Q1012
 
LEGR - Granada, Spain
Distancia de la estación: E 198km
Actualización: 22/10/2019 09:00
Muy nuboso
Muy nuboso
 Viento de SSO
Viento: SSO 6 km/h
Temperatura: 8°C
Rocío: 7°C
Humedad: 93%
Barómetro: 1012 hPa
Nubes: Muy nuboso
Visibilidad: 10 km
Detalles de las nubes: Poco nuboso 1067 m
Parcialmente nuboso 1676 m
Muy nuboso 2438 m
2019/10/22 07:00 LEGR 220700Z 21003KT 9999 FEW035 SCT055 BKN080 08/07 Q1012
LEAM - Almería, Spain
Distancia de la estación: E 326km
Actualización: 22/10/2019 09:00
Lluvia débil, Cubierto
Lluvia débil, Cubierto
 Viento de ENE
Viento: ENE 6 km/h
Temperatura: 14°C
Rocío: 13°C
Humedad: 94%
Barómetro: 1011 hPa
Resumen: Lluvia débil
Nubes: Cubierto
Visibilidad: 10 km
Detalles de las nubes: Poco nuboso 1219 m
Cubierto 2438 m
2019/10/22 07:00 LEAM 220700Z 06003KT 9999 -RA FEW040 OVC080 14/13 Q1011
LEMD - Madrid/Barajas, Spain
Distancia de la estación: NNE 402km
Actualización: 22/10/2019 09:00
Despejado
Despejado
 Viento de N
Viento: N 11 km/h
Temperatura: 8°C
Sensación térmica: 6°C
Rocío: 5°C
Humedad: 82%
Barómetro: 1015 hPa
Resumen: Despejado
Visibilidad: mayor de 10 km
2019/10/22 07:00 LEMD 220700Z 35006KT CAVOK 08/05 Q1015 NOSIG
 
LEVD - Valladolid, Spain
Distancia de la estación: N 492km
Actualización: 22/10/2019 09:00
Poco nuboso
Poco nuboso
 Viento de NE
Viento: NE 11 km/h
Temperatura: 4°C
Sensación térmica: 1°C
Rocío: 3°C
Humedad: 93%
Barómetro: 1017 hPa
Nubes: Poco nuboso
Visibilidad: 10 km
Detalles de las nubes: Poco nuboso 1372 m
2019/10/22 07:00 LEVD 220700Z 05006KT 9999 FEW045 04/03 Q1017
LEBL - Barcelona, Spain
Distancia de la estación: NE 816km
Actualización: 22/10/2019 09:00
Lluvia débil, Poco nuboso
Lluvia débil, Poco nuboso
 Viento de NE
Viento: NE 33 km/h
Temperatura: 17°C
Rocío: 14°C
Humedad: 83%
Barómetro: 1013 hPa
Resumen: Lluvia débil
Nubes: Poco nuboso
Visibilidad: 10 km
Detalles de las nubes: Poco nuboso 396 m
2019/10/22 07:00 LEBL 220700Z 05018KT 9999 -RA FEW013 17/14 Q1013 TEMPO 4000 SHRA FEW025TCU
LEVC - Valencia, Spain
Distancia de la estación: ENE 535km
Actualización: 22/10/2019 09:00
Lluvia débil, Parcialmente nuboso
Lluvia débil, Parcialmente nuboso
 Viento de NO
Viento: NO 11 km/h
Temperatura: 14°C
Rocío: 12°C
Humedad: 88%
Barómetro: 1013 hPa
Resumen: Lluvia débil
Nubes: Parcialmente nuboso
Visibilidad: 10 km
Detalles de las nubes: Poco nuboso 762 m
Parcialmente nuboso 1524 m
2019/10/22 07:00 LEVC 220700Z 31006KT 9999 -RA FEW025 SCT050 14/12 Q1013 NOSIG